sensor_id;sensor_type;location;lat;lon;timestamp;P1;durP1;ratioP1;P2;durP2;ratioP2
82635;SDS011;72317;37.280;-121.948;2023-11-19T00:01:33;1.88;;;0.50;;
82635;SDS011;72317;37.280;-121.948;2023-11-19T00:03:59;1.33;;;0.30;;
82635;SDS011;72317;37.280;-121.948;2023-11-19T00:06:25;2.00;;;0.68;;
82635;SDS011;72317;37.280;-121.948;2023-11-19T00:08:52;1.33;;;0.40;;
82635;SDS011;72317;37.280;-121.948;2023-11-19T00:11:18;2.08;;;0.40;;
82635;SDS011;72317;37.280;-121.948;2023-11-19T00:13:44;0.75;;;0.30;;
82635;SDS011;72317;37.280;-121.948;2023-11-19T00:16:10;1.42;;;0.30;;
82635;SDS011;72317;37.280;-121.948;2023-11-19T00:18:37;1.67;;;0.50;;
82635;SDS011;72317;37.280;-121.948;2023-11-19T00:21:03;2.33;;;0.47;;
82635;SDS011;72317;37.280;-121.948;2023-11-19T00:23:30;0.93;;;0.22;;
82635;SDS011;72317;37.280;-121.948;2023-11-19T00:25:56;0.45;;;0.32;;
82635;SDS011;72317;37.280;-121.948;2023-11-19T00:28:22;1.08;;;0.50;;
82635;SDS011;72317;37.280;-121.948;2023-11-19T00:30:49;0.73;;;0.45;;
82635;SDS011;72317;37.280;-121.948;2023-11-19T00:33:15;1.08;;;0.30;;
82635;SDS011;72317;37.280;-121.948;2023-11-19T00:35:41;0.63;;;0.40;;
82635;SDS011;72317;37.280;-121.948;2023-11-19T00:38:07;1.77;;;0.57;;
82635;SDS011;72317;37.280;-121.948;2023-11-19T00:40:33;1.42;;;0.60;;
82635;SDS011;72317;37.280;-121.948;2023-11-19T00:43:00;1.38;;;0.43;;
82635;SDS011;72317;37.280;-121.948;2023-11-19T00:45:26;0.95;;;0.60;;
82635;SDS011;72317;37.280;-121.948;2023-11-19T00:47:52;3.83;;;0.70;;
82635;SDS011;72317;37.280;-121.948;2023-11-19T00:50:18;1.85;;;0.80;;
82635;SDS011;72317;37.280;-121.948;2023-11-19T00:52:44;1.42;;;0.50;;
82635;SDS011;72317;37.280;-121.948;2023-11-19T00:55:10;1.42;;;0.60;;
82635;SDS011;72317;37.280;-121.948;2023-11-19T00:57:37;2.65;;;0.60;;
82635;SDS011;72317;37.280;-121.948;2023-11-19T01:00:23;3.88;;;0.60;;
82635;SDS011;72317;37.280;-121.948;2023-11-19T01:02:52;1.25;;;0.50;;
82635;SDS011;72317;37.280;-121.948;2023-11-19T01:05:19;1.35;;;0.60;;
82635;SDS011;72317;37.280;-121.948;2023-11-19T01:07:47;2.53;;;0.70;;
82635;SDS011;72317;37.280;-121.948;2023-11-19T01:10:14;1.88;;;0.70;;
82635;SDS011;72317;37.280;-121.948;2023-11-19T01:12:44;2.53;;;0.75;;
82635;SDS011;72317;37.280;-121.948;2023-11-19T01:15:10;2.33;;;0.75;;
82635;SDS011;72317;37.280;-121.948;2023-11-19T01:17:36;2.13;;;0.82;;
82635;SDS011;72317;37.280;-121.948;2023-11-19T01:20:03;2.75;;;0.90;;
82635;SDS011;72317;37.280;-121.948;2023-11-19T01:22:31;1.63;;;0.93;;
82635;SDS011;72317;37.280;-121.948;2023-11-19T01:24:58;2.60;;;0.73;;
82635;SDS011;72317;37.280;-121.948;2023-11-19T01:27:24;3.58;;;0.93;;
82635;SDS011;72317;37.280;-121.948;2023-11-19T01:29:50;2.83;;;0.90;;
82635;SDS011;72317;37.280;-121.948;2023-11-19T01:32:16;5.03;;;1.05;;
82635;SDS011;72317;37.280;-121.948;2023-11-19T01:34:43;5.65;;;1.00;;
82635;SDS011;72317;37.280;-121.948;2023-11-19T01:37:09;4.45;;;1.20;;
82635;SDS011;72317;37.280;-121.948;2023-11-19T01:39:35;1.90;;;1.00;;
82635;SDS011;72317;37.280;-121.948;2023-11-19T01:42:01;4.90;;;1.30;;
82635;SDS011;72317;37.280;-121.948;2023-11-19T01:44:27;1.88;;;0.95;;
82635;SDS011;72317;37.280;-121.948;2023-11-19T01:46:54;2.95;;;0.98;;
82635;SDS011;72317;37.280;-121.948;2023-11-19T01:49:20;3.13;;;1.00;;
82635;SDS011;72317;37.280;-121.948;2023-11-19T01:51:46;3.53;;;1.05;;
82635;SDS011;72317;37.280;-121.948;2023-11-19T01:54:13;2.80;;;0.98;;
82635;SDS011;72317;37.280;-121.948;2023-11-19T01:56:41;3.47;;;1.00;;
82635;SDS011;72317;37.280;-121.948;2023-11-19T01:59:07;2.67;;;0.95;;
82635;SDS011;72317;37.280;-121.948;2023-11-19T02:01:38;2.67;;;0.90;;
82635;SDS011;72317;37.280;-121.948;2023-11-19T02:04:05;3.10;;;0.82;;
82635;SDS011;72317;37.280;-121.948;2023-11-19T02:06:34;3.03;;;0.80;;
82635;SDS011;72317;37.280;-121.948;2023-11-19T02:09:06;3.50;;;0.90;;
82635;SDS011;72317;37.280;-121.948;2023-11-19T02:11:34;3.67;;;0.90;;
82635;SDS011;72317;37.280;-121.948;2023-11-19T02:14:00;1.50;;;0.70;;
82635;SDS011;72317;37.280;-121.948;2023-11-19T02:16:29;3.35;;;0.82;;
82635;SDS011;72317;37.280;-121.948;2023-11-19T02:18:55;2.80;;;0.90;;
82635;SDS011;72317;37.280;-121.948;2023-11-19T02:21:21;2.70;;;0.70;;
82635;SDS011;72317;37.280;-121.948;2023-11-19T02:23:47;3.78;;;0.95;;
82635;SDS011;72317;37.280;-121.948;2023-11-19T02:28:45;2.95;;;0.85;;
82635;SDS011;72317;37.280;-121.948;2023-11-19T02:31:11;2.85;;;0.82;;
82635;SDS011;72317;37.280;-121.948;2023-11-19T02:33:38;3.35;;;1.40;;
82635;SDS011;72317;37.280;-121.948;2023-11-19T02:36:04;3.53;;;1.52;;
82635;SDS011;72317;37.280;-121.948;2023-11-19T02:38:35;3.63;;;2.60;;
82635;SDS011;72317;37.280;-121.948;2023-11-19T02:41:04;3.25;;;1.80;;
82635;SDS011;72317;37.280;-121.948;2023-11-19T02:43:31;4.35;;;2.00;;
82635;SDS011;72317;37.280;-121.948;2023-11-19T02:46:02;4.55;;;2.38;;
82635;SDS011;72317;37.280;-121.948;2023-11-19T02:48:32;2.90;;;1.60;;
82635;SDS011;72317;37.280;-121.948;2023-11-19T02:51:00;4.68;;;1.77;;
82635;SDS011;72317;37.280;-121.948;2023-11-19T02:53:30;3.47;;;1.60;;
82635;SDS011;72317;37.280;-121.948;2023-11-19T02:55:57;2.72;;;1.50;;
82635;SDS011;72317;37.280;-121.948;2023-11-19T02:58:45;4.10;;;1.92;;
82635;SDS011;72317;37.280;-121.948;2023-11-19T03:01:12;4.40;;;2.00;;
82635;SDS011;72317;37.280;-121.948;2023-11-19T03:03:48;6.65;;;2.00;;
82635;SDS011;72317;37.280;-121.948;2023-11-19T03:06:19;4.00;;;1.73;;
82635;SDS011;72317;37.280;-121.948;2023-11-19T03:08:47;7.13;;;1.85;;
82635;SDS011;72317;37.280;-121.948;2023-11-19T03:11:13;7.57;;;1.95;;
82635;SDS011;72317;37.280;-121.948;2023-11-19T03:13:39;3.65;;;1.70;;
82635;SDS011;72317;37.280;-121.948;2023-11-19T03:16:06;6.32;;;1.85;;
82635;SDS011;72317;37.280;-121.948;2023-11-19T03:18:32;4.25;;;1.67;;
82635;SDS011;72317;37.280;-121.948;2023-11-19T03:20:59;4.70;;;2.20;;
82635;SDS011;72317;37.280;-121.948;2023-11-19T03:23:25;5.43;;;1.83;;
82635;SDS011;72317;37.280;-121.948;2023-11-19T03:25:53;6.47;;;2.28;;
82635;SDS011;72317;37.280;-121.948;2023-11-19T03:28:19;4.15;;;2.03;;
82635;SDS011;72317;37.280;-121.948;2023-11-19T03:30:45;4.38;;;2.00;;
82635;SDS011;72317;37.280;-121.948;2023-11-19T03:33:12;5.22;;;2.08;;
82635;SDS011;72317;37.280;-121.948;2023-11-19T03:35:38;6.32;;;1.88;;
82635;SDS011;72317;37.280;-121.948;2023-11-19T03:38:06;3.63;;;1.50;;
82635;SDS011;72317;37.280;-121.948;2023-11-19T03:40:32;3.60;;;1.48;;
82635;SDS011;72317;37.280;-121.948;2023-11-19T03:42:58;2.58;;;1.52;;
82635;SDS011;72317;37.280;-121.948;2023-11-19T03:45:25;2.90;;;1.50;;
82635;SDS011;72317;37.280;-121.948;2023-11-19T03:47:51;4.35;;;1.77;;
82635;SDS011;72317;37.280;-121.948;2023-11-19T03:50:17;4.85;;;2.13;;
82635;SDS011;72317;37.280;-121.948;2023-11-19T03:52:45;4.78;;;1.83;;
82635;SDS011;72317;37.280;-121.948;2023-11-19T03:55:12;2.92;;;1.88;;
82635;SDS011;72317;37.280;-121.948;2023-11-19T03:57:38;4.55;;;2.10;;
82635;SDS011;72317;37.280;-121.948;2023-11-19T04:00:05;5.13;;;2.03;;
82635;SDS011;72317;37.280;-121.948;2023-11-19T04:02:39;4.28;;;1.98;;
82635;SDS011;72317;37.280;-121.948;2023-11-19T04:05:06;3.40;;;1.60;;
82635;SDS011;72317;37.280;-121.948;2023-11-19T04:07:32;6.10;;;2.08;;
82635;SDS011;72317;37.280;-121.948;2023-11-19T04:09:59;6.50;;;2.40;;
82635;SDS011;72317;37.280;-121.948;2023-11-19T04:12:45;4.60;;;2.00;;
82635;SDS011;72317;37.280;-121.948;2023-11-19T04:15:12;4.50;;;2.10;;
82635;SDS011;72317;37.280;-121.948;2023-11-19T04:17:39;4.40;;;1.90;;
82635;SDS011;72317;37.280;-121.948;2023-11-19T04:20:06;6.25;;;1.88;;
82635;SDS011;72317;37.280;-121.948;2023-11-19T04:22:36;3.20;;;1.88;;
82635;SDS011;72317;37.280;-121.948;2023-11-19T04:25:02;4.35;;;1.70;;
82635;SDS011;72317;37.280;-121.948;2023-11-19T04:27:29;5.22;;;1.60;;
82635;SDS011;72317;37.280;-121.948;2023-11-19T04:29:56;6.68;;;1.70;;
82635;SDS011;72317;37.280;-121.948;2023-11-19T04:32:22;5.30;;;1.90;;
82635;SDS011;72317;37.280;-121.948;2023-11-19T04:34:49;7.68;;;1.85;;
82635;SDS011;72317;37.280;-121.948;2023-11-19T04:37:15;3.88;;;1.38;;
82635;SDS011;72317;37.280;-121.948;2023-11-19T04:39:41;5.30;;;1.58;;
82635;SDS011;72317;37.280;-121.948;2023-11-19T04:42:11;4.75;;;1.65;;
82635;SDS011;72317;37.280;-121.948;2023-11-19T04:44:37;4.20;;;1.40;;
82635;SDS011;72317;37.280;-121.948;2023-11-19T04:47:04;4.00;;;1.55;;
82635;SDS011;72317;37.280;-121.948;2023-11-19T04:49:30;8.02;;;1.85;;
82635;SDS011;72317;37.280;-121.948;2023-11-19T04:51:56;5.35;;;1.70;;
82635;SDS011;72317;37.280;-121.948;2023-11-19T04:54:22;7.43;;;1.60;;
82635;SDS011;72317;37.280;-121.948;2023-11-19T04:56:48;7.28;;;1.60;;
82635;SDS011;72317;37.280;-121.948;2023-11-19T04:59:14;8.68;;;1.98;;
82635;SDS011;72317;37.280;-121.948;2023-11-19T05:01:40;7.57;;;1.90;;
82635;SDS011;72317;37.280;-121.948;2023-11-19T05:04:07;6.72;;;1.70;;
82635;SDS011;72317;37.280;-121.948;2023-11-19T05:06:34;7.15;;;1.88;;
82635;SDS011;72317;37.280;-121.948;2023-11-19T05:09:00;8.40;;;1.95;;
82635;SDS011;72317;37.280;-121.948;2023-11-19T05:11:28;5.97;;;1.60;;
82635;SDS011;72317;37.280;-121.948;2023-11-19T05:13:55;7.60;;;1.75;;
82635;SDS011;72317;37.280;-121.948;2023-11-19T05:16:21;6.35;;;1.90;;
82635;SDS011;72317;37.280;-121.948;2023-11-19T05:18:47;8.07;;;1.77;;
82635;SDS011;72317;37.280;-121.948;2023-11-19T05:21:13;6.65;;;1.65;;
82635;SDS011;72317;37.280;-121.948;2023-11-19T05:23:39;6.18;;;1.40;;
82635;SDS011;72317;37.280;-121.948;2023-11-19T05:26:07;6.70;;;2.20;;
82635;SDS011;72317;37.280;-121.948;2023-11-19T05:28:34;5.43;;;1.48;;
82635;SDS011;72317;37.280;-121.948;2023-11-19T05:31:00;6.72;;;1.80;;
82635;SDS011;72317;37.280;-121.948;2023-11-19T05:33:26;8.50;;;1.90;;
82635;SDS011;72317;37.280;-121.948;2023-11-19T05:35:52;5.55;;;1.70;;
82635;SDS011;72317;37.280;-121.948;2023-11-19T05:38:18;7.72;;;2.03;;
82635;SDS011;72317;37.280;-121.948;2023-11-19T05:40:46;6.10;;;1.85;;
82635;SDS011;72317;37.280;-121.948;2023-11-19T05:43:13;7.65;;;1.85;;
82635;SDS011;72317;37.280;-121.948;2023-11-19T05:45:42;7.93;;;2.42;;
82635;SDS011;72317;37.280;-121.948;2023-11-19T05:48:08;9.70;;;2.08;;
82635;SDS011;72317;37.280;-121.948;2023-11-19T05:50:35;7.35;;;1.92;;
82635;SDS011;72317;37.280;-121.948;2023-11-19T05:53:01;10.57;;;2.17;;
82635;SDS011;72317;37.280;-121.948;2023-11-19T05:55:27;8.43;;;2.15;;
82635;SDS011;72317;37.280;-121.948;2023-11-19T05:57:53;9.18;;;2.15;;
82635;SDS011;72317;37.280;-121.948;2023-11-19T06:00:19;9.32;;;2.10;;
82635;SDS011;72317;37.280;-121.948;2023-11-19T06:02:45;11.85;;;2.45;;
82635;SDS011;72317;37.280;-121.948;2023-11-19T06:05:11;10.82;;;2.45;;
82635;SDS011;72317;37.280;-121.948;2023-11-19T06:07:39;12.85;;;2.28;;
82635;SDS011;72317;37.280;-121.948;2023-11-19T06:10:06;13.95;;;2.78;;
82635;SDS011;72317;37.280;-121.948;2023-11-19T06:12:35;13.15;;;3.05;;
82635;SDS011;72317;37.280;-121.948;2023-11-19T06:15:06;14.50;;;2.58;;
82635;SDS011;72317;37.280;-121.948;2023-11-19T06:17:36;11.45;;;2.88;;
82635;SDS011;72317;37.280;-121.948;2023-11-19T06:20:03;25.00;;;3.88;;
82635;SDS011;72317;37.280;-121.948;2023-11-19T06:22:30;19.48;;;3.90;;
82635;SDS011;72317;37.280;-121.948;2023-11-19T06:24:56;20.67;;;3.72;;
82635;SDS011;72317;37.280;-121.948;2023-11-19T06:27:23;23.50;;;3.90;;
82635;SDS011;72317;37.280;-121.948;2023-11-19T06:29:50;20.38;;;3.90;;
82635;SDS011;72317;37.280;-121.948;2023-11-19T06:32:16;23.98;;;4.03;;
82635;SDS011;72317;37.280;-121.948;2023-11-19T06:34:42;21.50;;;3.85;;
82635;SDS011;72317;37.280;-121.948;2023-11-19T06:37:08;23.40;;;4.53;;
82635;SDS011;72317;37.280;-121.948;2023-11-19T06:39:34;21.55;;;4.18;;
82635;SDS011;72317;37.280;-121.948;2023-11-19T06:42:01;23.88;;;4.72;;
82635;SDS011;72317;37.280;-121.948;2023-11-19T06:44:27;22.35;;;4.30;;
82635;SDS011;72317;37.280;-121.948;2023-11-19T06:46:53;25.25;;;4.50;;
82635;SDS011;72317;37.280;-121.948;2023-11-19T06:49:19;26.65;;;4.43;;
82635;SDS011;72317;37.280;-121.948;2023-11-19T06:51:45;23.02;;;4.45;;
82635;SDS011;72317;37.280;-121.948;2023-11-19T06:54:11;26.58;;;4.60;;
82635;SDS011;72317;37.280;-121.948;2023-11-19T06:56:37;27.52;;;5.32;;
82635;SDS011;72317;37.280;-121.948;2023-11-19T06:59:24;27.25;;;4.90;;
82635;SDS011;72317;37.280;-121.948;2023-11-19T07:01:50;26.08;;;4.80;;
82635;SDS011;72317;37.280;-121.948;2023-11-19T07:04:16;23.02;;;4.28;;
82635;SDS011;72317;37.280;-121.948;2023-11-19T07:06:42;25.13;;;4.40;;
82635;SDS011;72317;37.280;-121.948;2023-11-19T07:09:08;25.05;;;4.70;;
82635;SDS011;72317;37.280;-121.948;2023-11-19T07:11:38;28.23;;;5.22;;
82635;SDS011;72317;37.280;-121.948;2023-11-19T07:14:05;23.98;;;4.53;;
82635;SDS011;72317;37.280;-121.948;2023-11-19T07:16:33;26.55;;;4.53;;
82635;SDS011;72317;37.280;-121.948;2023-11-19T07:19:05;26.17;;;4.68;;
82635;SDS011;72317;37.280;-121.948;2023-11-19T07:21:32;26.73;;;4.85;;
82635;SDS011;72317;37.280;-121.948;2023-11-19T07:23:58;30.00;;;4.68;;
82635;SDS011;72317;37.280;-121.948;2023-11-19T07:26:25;25.95;;;4.60;;
82635;SDS011;72317;37.280;-121.948;2023-11-19T07:28:52;22.77;;;4.68;;
82635;SDS011;72317;37.280;-121.948;2023-11-19T07:31:18;25.15;;;4.60;;
82635;SDS011;72317;37.280;-121.948;2023-11-19T07:33:45;18.77;;;4.50;;
82635;SDS011;72317;37.280;-121.948;2023-11-19T07:36:13;22.73;;;4.25;;
82635;SDS011;72317;37.280;-121.948;2023-11-19T07:38:39;22.90;;;4.85;;
82635;SDS011;72317;37.280;-121.948;2023-11-19T07:41:05;24.38;;;4.55;;
82635;SDS011;72317;37.280;-121.948;2023-11-19T07:43:32;24.20;;;4.70;;
82635;SDS011;72317;37.280;-121.948;2023-11-19T07:45:58;22.17;;;4.53;;
82635;SDS011;72317;37.280;-121.948;2023-11-19T07:48:25;23.92;;;4.55;;
82635;SDS011;72317;37.280;-121.948;2023-11-19T07:50:51;24.60;;;4.30;;
82635;SDS011;72317;37.280;-121.948;2023-11-19T07:53:18;22.42;;;4.32;;
82635;SDS011;72317;37.280;-121.948;2023-11-19T07:55:45;21.40;;;4.53;;
82635;SDS011;72317;37.280;-121.948;2023-11-19T07:58:11;20.15;;;3.72;;
82635;SDS011;72317;37.280;-121.948;2023-11-19T08:00:38;17.80;;;3.70;;
82635;SDS011;72317;37.280;-121.948;2023-11-19T08:03:05;21.05;;;4.60;;
82635;SDS011;72317;37.280;-121.948;2023-11-19T08:05:31;25.05;;;4.82;;
82635;SDS011;72317;37.280;-121.948;2023-11-19T08:07:57;27.08;;;4.65;;
82635;SDS011;72317;37.280;-121.948;2023-11-19T08:10:24;20.23;;;4.18;;
82635;SDS011;72317;37.280;-121.948;2023-11-19T08:12:50;20.30;;;3.72;;
82635;SDS011;72317;37.280;-121.948;2023-11-19T08:15:16;21.67;;;3.88;;
82635;SDS011;72317;37.280;-121.948;2023-11-19T08:17:42;22.85;;;4.03;;
82635;SDS011;72317;37.280;-121.948;2023-11-19T08:20:09;21.95;;;4.43;;
82635;SDS011;72317;37.280;-121.948;2023-11-19T08:22:39;20.65;;;4.43;;
82635;SDS011;72317;37.280;-121.948;2023-11-19T08:25:05;23.00;;;4.13;;
82635;SDS011;72317;37.280;-121.948;2023-11-19T08:27:31;24.33;;;4.60;;
82635;SDS011;72317;37.280;-121.948;2023-11-19T08:29:58;20.40;;;4.03;;
82635;SDS011;72317;37.280;-121.948;2023-11-19T08:32:25;16.50;;;4.43;;
82635;SDS011;72317;37.280;-121.948;2023-11-19T08:34:51;23.08;;;4.97;;
82635;SDS011;72317;37.280;-121.948;2023-11-19T08:37:18;22.38;;;4.30;;
82635;SDS011;72317;37.280;-121.948;2023-11-19T08:39:49;22.17;;;4.30;;
82635;SDS011;72317;37.280;-121.948;2023-11-19T08:42:16;23.25;;;4.65;;
82635;SDS011;72317;37.280;-121.948;2023-11-19T08:44:43;22.10;;;3.78;;
82635;SDS011;72317;37.280;-121.948;2023-11-19T08:47:12;22.08;;;4.65;;
82635;SDS011;72317;37.280;-121.948;2023-11-19T08:49:38;22.48;;;4.15;;
82635;SDS011;72317;37.280;-121.948;2023-11-19T08:52:05;19.88;;;3.83;;
82635;SDS011;72317;37.280;-121.948;2023-11-19T08:54:36;20.98;;;4.00;;
82635;SDS011;72317;37.280;-121.948;2023-11-19T08:57:03;27.65;;;4.80;;
82635;SDS011;72317;37.280;-121.948;2023-11-19T08:59:29;24.52;;;4.53;;
82635;SDS011;72317;37.280;-121.948;2023-11-19T09:01:55;23.77;;;4.78;;
82635;SDS011;72317;37.280;-121.948;2023-11-19T09:04:22;28.15;;;4.72;;
82635;SDS011;72317;37.280;-121.948;2023-11-19T09:06:48;18.85;;;4.43;;
82635;SDS011;72317;37.280;-121.948;2023-11-19T09:09:15;24.88;;;4.13;;
82635;SDS011;72317;37.280;-121.948;2023-11-19T09:11:41;22.17;;;4.65;;
82635;SDS011;72317;37.280;-121.948;2023-11-19T09:14:07;20.15;;;4.15;;
82635;SDS011;72317;37.280;-121.948;2023-11-19T09:16:33;22.55;;;4.60;;
82635;SDS011;72317;37.280;-121.948;2023-11-19T09:19:00;18.42;;;4.35;;
82635;SDS011;72317;37.280;-121.948;2023-11-19T09:21:27;23.10;;;4.32;;
82635;SDS011;72317;37.280;-121.948;2023-11-19T09:23:56;27.05;;;4.60;;
82635;SDS011;72317;37.280;-121.948;2023-11-19T09:26:22;26.42;;;4.45;;
82635;SDS011;72317;37.280;-121.948;2023-11-19T09:28:49;22.23;;;4.03;;
82635;SDS011;72317;37.280;-121.948;2023-11-19T09:31:15;22.48;;;4.50;;
82635;SDS011;72317;37.280;-121.948;2023-11-19T09:33:42;21.63;;;4.05;;
82635;SDS011;72317;37.280;-121.948;2023-11-19T09:36:09;20.02;;;3.97;;
82635;SDS011;72317;37.280;-121.948;2023-11-19T09:38:39;25.63;;;4.22;;
82635;SDS011;72317;37.280;-121.948;2023-11-19T09:41:06;20.88;;;4.28;;
82635;SDS011;72317;37.280;-121.948;2023-11-19T09:43:38;22.58;;;4.32;;
82635;SDS011;72317;37.280;-121.948;2023-11-19T09:46:05;22.15;;;4.13;;
82635;SDS011;72317;37.280;-121.948;2023-11-19T09:48:33;23.10;;;4.38;;
82635;SDS011;72317;37.280;-121.948;2023-11-19T09:51:03;22.75;;;4.35;;
82635;SDS011;72317;37.280;-121.948;2023-11-19T09:53:30;19.13;;;4.05;;
82635;SDS011;72317;37.280;-121.948;2023-11-19T09:55:57;23.15;;;4.43;;
82635;SDS011;72317;37.280;-121.948;2023-11-19T09:58:45;19.20;;;4.28;;
82635;SDS011;72317;37.280;-121.948;2023-11-19T10:01:12;23.20;;;4.10;;
82635;SDS011;72317;37.280;-121.948;2023-11-19T10:03:39;25.88;;;4.53;;
82635;SDS011;72317;37.280;-121.948;2023-11-19T10:06:06;23.60;;;4.43;;
82635;SDS011;72317;37.280;-121.948;2023-11-19T10:08:33;20.92;;;4.07;;
82635;SDS011;72317;37.280;-121.948;2023-11-19T10:11:00;18.33;;;4.10;;
82635;SDS011;72317;37.280;-121.948;2023-11-19T10:13:26;22.00;;;4.00;;
82635;SDS011;72317;37.280;-121.948;2023-11-19T10:15:55;25.90;;;4.78;;
82635;SDS011;72317;37.280;-121.948;2023-11-19T10:18:28;24.15;;;4.50;;
82635;SDS011;72317;37.280;-121.948;2023-11-19T10:20:54;22.88;;;4.30;;
82635;SDS011;72317;37.280;-121.948;2023-11-19T10:23:20;20.52;;;3.60;;
82635;SDS011;72317;37.280;-121.948;2023-11-19T10:25:47;23.20;;;4.53;;
82635;SDS011;72317;37.280;-121.948;2023-11-19T10:28:15;26.20;;;4.43;;
82635;SDS011;72317;37.280;-121.948;2023-11-19T10:30:44;24.58;;;4.65;;
82635;SDS011;72317;37.280;-121.948;2023-11-19T10:33:10;24.10;;;4.55;;
82635;SDS011;72317;37.280;-121.948;2023-11-19T10:35:55;24.13;;;4.50;;
82635;SDS011;72317;37.280;-121.948;2023-11-19T10:38:23;19.38;;;4.22;;
82635;SDS011;72317;37.280;-121.948;2023-11-19T10:40:50;23.75;;;4.50;;
82635;SDS011;72317;37.280;-121.948;2023-11-19T10:43:17;27.02;;;4.13;;
82635;SDS011;72317;37.280;-121.948;2023-11-19T10:45:45;22.50;;;4.45;;
82635;SDS011;72317;37.280;-121.948;2023-11-19T10:48:12;26.83;;;4.63;;
82635;SDS011;72317;37.280;-121.948;2023-11-19T10:50:58;22.50;;;4.45;;
82635;SDS011;72317;37.280;-121.948;2023-11-19T10:53:24;20.40;;;4.22;;
82635;SDS011;72317;37.280;-121.948;2023-11-19T10:55:51;17.08;;;3.75;;
82635;SDS011;72317;37.280;-121.948;2023-11-19T10:58:20;18.98;;;3.78;;
82635;SDS011;72317;37.280;-121.948;2023-11-19T11:00:55;16.75;;;3.97;;
82635;SDS011;72317;37.280;-121.948;2023-11-19T11:03:29;18.70;;;3.63;;
82635;SDS011;72317;37.280;-121.948;2023-11-19T11:06:02;17.23;;;3.55;;
82635;SDS011;72317;37.280;-121.948;2023-11-19T11:08:29;23.48;;;4.35;;
82635;SDS011;72317;37.280;-121.948;2023-11-19T11:10:56;23.42;;;4.22;;
82635;SDS011;72317;37.280;-121.948;2023-11-19T11:13:24;20.92;;;4.10;;
82635;SDS011;72317;37.280;-121.948;2023-11-19T11:15:53;19.77;;;3.78;;
82635;SDS011;72317;37.280;-121.948;2023-11-19T11:18:21;22.83;;;3.95;;
82635;SDS011;72317;37.280;-121.948;2023-11-19T11:20:50;18.52;;;3.75;;
82635;SDS011;72317;37.280;-121.948;2023-11-19T11:28:48;19.98;;;3.95;;
82635;SDS011;72317;37.280;-121.948;2023-11-19T11:34:07;17.88;;;3.83;;
82635;SDS011;72317;37.280;-121.948;2023-11-19T11:36:43;24.52;;;4.40;;
82635;SDS011;72317;37.280;-121.948;2023-11-19T11:39:30;18.58;;;3.60;;
82635;SDS011;72317;37.280;-121.948;2023-11-19T11:44:59;18.83;;;3.92;;
82635;SDS011;72317;37.280;-121.948;2023-11-19T11:50:13;22.00;;;4.32;;
82635;SDS011;72317;37.280;-121.948;2023-11-19T11:55:25;20.02;;;4.22;;
82635;SDS011;72317;37.280;-121.948;2023-11-19T11:58:21;23.02;;;4.50;;
82635;SDS011;72317;37.280;-121.948;2023-11-19T12:00:57;21.27;;;4.03;;
82635;SDS011;72317;37.280;-121.948;2023-11-19T12:03:26;17.38;;;3.90;;
82635;SDS011;72317;37.280;-121.948;2023-11-19T12:05:54;22.55;;;4.22;;
82635;SDS011;72317;37.280;-121.948;2023-11-19T12:08:20;17.92;;;3.65;;
82635;SDS011;72317;37.280;-121.948;2023-11-19T12:10:52;17.33;;;3.50;;
82635;SDS011;72317;37.280;-121.948;2023-11-19T12:13:19;16.98;;;3.05;;
82635;SDS011;72317;37.280;-121.948;2023-11-19T12:20:51;17.52;;;3.60;;
82635;SDS011;72317;37.280;-121.948;2023-11-19T12:23:17;18.35;;;4.00;;
82635;SDS011;72317;37.280;-121.948;2023-11-19T12:25:43;19.70;;;3.40;;
82635;SDS011;72317;37.280;-121.948;2023-11-19T12:28:13;19.70;;;4.10;;
82635;SDS011;72317;37.280;-121.948;2023-11-19T12:30:41;23.00;;;4.25;;
82635;SDS011;72317;37.280;-121.948;2023-11-19T12:33:11;19.50;;;3.85;;
82635;SDS011;72317;37.280;-121.948;2023-11-19T12:35:41;15.90;;;3.50;;
82635;SDS011;72317;37.280;-121.948;2023-11-19T12:38:08;19.88;;;4.00;;
82635;SDS011;72317;37.280;-121.948;2023-11-19T12:41:07;21.85;;;4.07;;
82635;SDS011;72317;37.280;-121.948;2023-11-19T12:43:37;19.23;;;3.78;;
82635;SDS011;72317;37.280;-121.948;2023-11-19T12:46:16;23.77;;;4.00;;
82635;SDS011;72317;37.280;-121.948;2023-11-19T12:48:43;23.02;;;3.67;;
82635;SDS011;72317;37.280;-121.948;2023-11-19T12:51:09;21.35;;;4.35;;
82635;SDS011;72317;37.280;-121.948;2023-11-19T12:53:47;21.63;;;3.97;;
82635;SDS011;72317;37.280;-121.948;2023-11-19T12:56:15;23.45;;;4.35;;
82635;SDS011;72317;37.280;-121.948;2023-11-19T12:58:41;20.52;;;4.38;;
82635;SDS011;72317;37.280;-121.948;2023-11-19T13:01:08;24.38;;;4.72;;
82635;SDS011;72317;37.280;-121.948;2023-11-19T13:03:38;18.63;;;4.05;;
82635;SDS011;72317;37.280;-121.948;2023-11-19T13:08:46;19.02;;;3.85;;
82635;SDS011;72317;37.280;-121.948;2023-11-19T13:11:15;21.70;;;4.45;;
82635;SDS011;72317;37.280;-121.948;2023-11-19T13:14:06;22.15;;;4.03;;
82635;SDS011;72317;37.280;-121.948;2023-11-19T13:16:37;17.60;;;3.70;;
82635;SDS011;72317;37.280;-121.948;2023-11-19T13:19:07;17.73;;;3.97;;
82635;SDS011;72317;37.280;-121.948;2023-11-19T13:21:36;18.50;;;3.80;;
82635;SDS011;72317;37.280;-121.948;2023-11-19T13:24:07;19.73;;;4.10;;
82635;SDS011;72317;37.280;-121.948;2023-11-19T13:26:34;20.50;;;3.78;;
82635;SDS011;72317;37.280;-121.948;2023-11-19T13:29:00;20.48;;;3.90;;
82635;SDS011;72317;37.280;-121.948;2023-11-19T13:31:26;15.98;;;3.90;;
82635;SDS011;72317;37.280;-121.948;2023-11-19T13:33:52;20.38;;;3.97;;
82635;SDS011;72317;37.280;-121.948;2023-11-19T13:36:18;19.40;;;3.78;;
82635;SDS011;72317;37.280;-121.948;2023-11-19T13:38:45;24.08;;;4.22;;
82635;SDS011;72317;37.280;-121.948;2023-11-19T13:41:12;22.15;;;4.05;;
82635;SDS011;72317;37.280;-121.948;2023-11-19T13:43:39;21.27;;;3.83;;
82635;SDS011;72317;37.280;-121.948;2023-11-19T13:46:05;19.45;;;3.80;;
82635;SDS011;72317;37.280;-121.948;2023-11-19T13:48:32;19.05;;;3.35;;
82635;SDS011;72317;37.280;-121.948;2023-11-19T13:50:58;16.25;;;3.28;;
82635;SDS011;72317;37.280;-121.948;2023-11-19T13:53:25;19.08;;;3.90;;
82635;SDS011;72317;37.280;-121.948;2023-11-19T13:55:51;16.63;;;3.75;;
82635;SDS011;72317;37.280;-121.948;2023-11-19T13:58:18;17.98;;;3.47;;
82635;SDS011;72317;37.280;-121.948;2023-11-19T14:00:44;17.63;;;3.08;;
82635;SDS011;72317;37.280;-121.948;2023-11-19T14:03:10;17.45;;;2.92;;
82635;SDS011;72317;37.280;-121.948;2023-11-19T14:05:37;13.77;;;3.03;;
82635;SDS011;72317;37.280;-121.948;2023-11-19T14:08:04;16.85;;;3.45;;
82635;SDS011;72317;37.280;-121.948;2023-11-19T14:10:37;16.02;;;2.75;;
82635;SDS011;72317;37.280;-121.948;2023-11-19T14:13:06;18.42;;;3.33;;
82635;SDS011;72317;37.280;-121.948;2023-11-19T14:15:33;19.08;;;3.35;;
82635;SDS011;72317;37.280;-121.948;2023-11-19T14:18:00;12.80;;;3.45;;
82635;SDS011;72317;37.280;-121.948;2023-11-19T14:20:27;14.57;;;3.00;;
82635;SDS011;72317;37.280;-121.948;2023-11-19T14:22:53;17.63;;;2.88;;
82635;SDS011;72317;37.280;-121.948;2023-11-19T14:25:19;16.10;;;2.58;;
82635;SDS011;72317;37.280;-121.948;2023-11-19T14:27:46;12.23;;;2.63;;
82635;SDS011;72317;37.280;-121.948;2023-11-19T14:30:13;13.10;;;2.70;;
82635;SDS011;72317;37.280;-121.948;2023-11-19T14:32:41;15.18;;;3.30;;